createdAt,value
2022-09-30T00:00:56.178Z,5.70
2022-09-30T00:03:24.061Z,5.70
2022-09-30T00:05:59.049Z,5.60
2022-09-30T00:08:26.209Z,5.60
2022-09-30T00:11:00.875Z,5.50
2022-09-30T00:13:27.873Z,5.60
2022-09-30T00:15:54.599Z,5.50
2022-09-30T00:18:21.334Z,5.40
2022-09-30T00:20:48.189Z,5.40
2022-09-30T00:23:15.046Z,5.40
2022-09-30T00:25:41.787Z,5.40
2022-09-30T00:28:08.705Z,5.30
2022-09-30T00:30:35.871Z,5.20
2022-09-30T00:33:02.713Z,5.20
2022-09-30T00:35:29.481Z,5.10
2022-09-30T00:37:56.177Z,5.10
2022-09-30T00:40:23.272Z,5.10
2022-09-30T00:42:50.033Z,5.10
2022-09-30T00:45:18.089Z,5.10
2022-09-30T00:47:51.602Z,5.00
2022-09-30T00:50:46.175Z,4.90
2022-09-30T00:53:32.741Z,4.90
2022-09-30T00:56:22.949Z,4.90
2022-09-30T00:59:00.601Z,1.60
2022-09-30T01:01:27.592Z,4.40
2022-09-30T01:04:00.137Z,4.40
2022-09-30T01:06:26.937Z,4.40
2022-09-30T01:08:55.181Z,4.40
2022-09-30T01:11:21.864Z,4.50
2022-09-30T01:13:52.850Z,4.60
2022-09-30T01:16:55.073Z,4.70
2022-09-30T01:19:36.148Z,4.80
2022-09-30T01:22:42.653Z,4.90
2022-09-30T01:25:30.236Z,5.00
2022-09-30T01:28:13.481Z,5.10
2022-09-30T01:30:48.024Z,5.00
2022-09-30T01:33:26.996Z,5.10
2022-09-30T01:36:08.340Z,5.20
2022-09-30T01:39:10.444Z,5.30
2022-09-30T01:41:55.845Z,5.20
2022-09-30T01:44:44.344Z,5.30
2022-09-30T01:47:30.484Z,5.30
2022-09-30T01:50:08.868Z,5.30
2022-09-30T01:53:03.568Z,5.30
2022-09-30T01:55:40.122Z,5.30
2022-09-30T01:58:13.344Z,5.40
2022-09-30T02:00:44.134Z,5.30
2022-09-30T02:03:17.795Z,5.30
2022-09-30T02:05:57.753Z,5.30
2022-09-30T02:08:31.589Z,5.30
2022-09-30T02:11:04.910Z,5.30
2022-09-30T02:13:41.593Z,5.40
2022-09-30T02:16:13.340Z,5.40
2022-09-30T02:18:47.653Z,5.40
2022-09-30T02:21:22.250Z,5.40
2022-09-30T02:23:53.153Z,5.40
2022-09-30T02:26:26.888Z,5.40
2022-09-30T02:29:03.980Z,5.40
2022-09-30T02:31:33.893Z,5.40
2022-09-30T02:34:05.993Z,5.40
2022-09-30T02:36:39.096Z,5.40
2022-09-30T02:39:29.052Z,5.30
2022-09-30T02:42:02.472Z,5.20
2022-09-30T02:44:31.792Z,5.20
2022-09-30T02:47:15.480Z,5.30
2022-09-30T02:50:04.797Z,5.30
2022-09-30T02:52:52.425Z,5.30
2022-09-30T02:55:21.618Z,5.30
2022-09-30T02:58:00.644Z,5.30
2022-09-30T03:00:27.748Z,5.30
2022-09-30T03:02:59.149Z,5.30
2022-09-30T03:05:27.096Z,5.30
2022-09-30T03:07:54.065Z,5.30
2022-09-30T03:10:20.765Z,5.30
2022-09-30T03:13:05.013Z,5.30
2022-09-30T03:15:52.867Z,5.40
2022-09-30T03:18:31.688Z,5.30
2022-09-30T03:21:27.005Z,5.30
2022-09-30T03:23:53.631Z,5.30
2022-09-30T03:26:30.196Z,5.30
2022-09-30T03:29:06.672Z,5.20
2022-09-30T03:31:41.313Z,5.20
2022-09-30T03:34:40.669Z,5.30
2022-09-30T03:37:22.153Z,5.20
2022-09-30T03:40:00.738Z,5.20
2022-09-30T03:42:33.216Z,5.20
2022-09-30T03:45:09.332Z,8.20
2022-09-30T03:47:42.859Z,5.20
2022-09-30T03:50:13.932Z,5.20
2022-09-30T03:52:40.831Z,5.10
2022-09-30T03:55:09.500Z,5.10
2022-09-30T03:57:36.223Z,5.20
2022-09-30T04:00:04.032Z,5.10
2022-09-30T04:02:30.740Z,5.20
2022-09-30T04:04:57.636Z,5.20
2022-09-30T04:07:24.667Z,5.20
2022-09-30T04:09:51.499Z,5.20
2022-09-30T04:12:18.279Z,5.20
2022-09-30T04:14:44.844Z,5.20
2022-09-30T04:17:11.603Z,5.10
2022-09-30T04:19:40.272Z,5.10
2022-09-30T04:22:08.252Z,5.10
2022-09-30T04:24:35.583Z,5.00
2022-09-30T04:27:03.171Z,7.40
2022-09-30T04:29:29.840Z,5.00
2022-09-30T04:31:57.151Z,5.00
2022-09-30T04:34:23.916Z,2.00
2022-09-30T04:36:50.648Z,4.90
2022-09-30T04:39:17.513Z,4.90
2022-09-30T04:41:44.402Z,4.90
2022-09-30T04:44:11.087Z,4.80
2022-09-30T04:46:37.812Z,4.80
2022-09-30T04:49:08.994Z,4.70
2022-09-30T04:51:37.112Z,4.80
2022-09-30T04:54:04.147Z,4.70
2022-09-30T04:56:30.847Z,4.60
2022-09-30T04:58:57.560Z,4.60
2022-09-30T05:01:24.442Z,4.50
2022-09-30T05:03:51.247Z,4.50
2022-09-30T05:06:18.459Z,4.50
2022-09-30T05:08:46.444Z,1.60
2022-09-30T05:11:17.876Z,4.40
2022-09-30T05:13:45.267Z,4.40
2022-09-30T05:16:12.542Z,4.40
2022-09-30T05:18:42.534Z,4.40
2022-09-30T05:21:09.998Z,4.50
2022-09-30T05:23:36.789Z,4.40
2022-09-30T05:26:03.704Z,4.40
2022-09-30T05:28:32.055Z,4.40
2022-09-30T05:31:01.065Z,4.40
2022-09-30T05:33:29.530Z,4.40
2022-09-30T05:36:00.830Z,4.40
2022-09-30T05:38:27.825Z,4.40
2022-09-30T05:40:54.663Z,4.50
2022-09-30T05:43:21.346Z,4.50
2022-09-30T05:45:57.082Z,7.50
2022-09-30T05:48:25.469Z,4.60
2022-09-30T05:51:01.622Z,4.60
2022-09-30T05:53:29.294Z,4.70
2022-09-30T05:55:55.994Z,4.70
2022-09-30T05:58:22.716Z,4.70
2022-09-30T06:00:50.210Z,4.80
2022-09-30T06:03:17.945Z,4.80
2022-09-30T06:05:45.761Z,7.80
2022-09-30T06:08:13.610Z,4.80
2022-09-30T06:10:42.195Z,4.80
2022-09-30T06:13:09.501Z,4.90
2022-09-30T06:15:41.263Z,4.90
2022-09-30T06:18:08.851Z,4.90
2022-09-30T06:20:36.581Z,4.90
2022-09-30T06:23:03.532Z,5.00
2022-09-30T06:25:31.218Z,5.10
2022-09-30T06:27:58.463Z,5.10
2022-09-30T06:30:25.437Z,5.20
2022-09-30T06:32:53.975Z,5.30
2022-09-30T06:35:22.021Z,5.30
2022-09-30T06:37:51.629Z,5.20
2022-09-30T06:40:18.381Z,5.20
2022-09-30T06:42:45.038Z,5.20
2022-09-30T06:45:23.168Z,5.30
2022-09-30T06:48:00.532Z,5.40
2022-09-30T06:50:28.152Z,5.40
2022-09-30T06:52:59.414Z,5.50
2022-09-30T06:55:27.470Z,5.60
2022-09-30T06:57:55.351Z,5.60
2022-09-30T07:00:22.942Z,7.90
2022-09-30T07:02:49.785Z,5.80
2022-09-30T07:05:17.318Z,5.80
2022-09-30T07:07:44.018Z,5.90
2022-09-30T07:10:11.178Z,6.00
2022-09-30T07:12:37.966Z,5.70
2022-09-30T07:15:05.022Z,6.20
2022-09-30T07:17:31.782Z,6.40
2022-09-30T07:19:59.137Z,6.60
2022-09-30T07:22:34.473Z,6.80
2022-09-30T07:25:03.789Z,6.90
2022-09-30T07:27:33.153Z,7.10
2022-09-30T07:32:47.421Z,7.50
2022-09-30T07:35:14.302Z,7.60
2022-09-30T07:37:41.018Z,6.40
2022-09-30T07:40:09.347Z,8.00
2022-09-30T07:42:41.644Z,8.20
2022-09-30T07:45:08.776Z,8.50
2022-09-30T07:47:35.451Z,8.80
2022-09-30T07:50:02.354Z,8.80
2022-09-30T07:52:28.984Z,8.70
2022-09-30T07:54:55.729Z,8.70
2022-09-30T07:57:22.443Z,8.80
2022-09-30T07:59:49.113Z,8.70
2022-09-30T08:02:18.270Z,8.70
2022-09-30T08:04:45.637Z,8.90
2022-09-30T08:07:13.641Z,5.50
2022-09-30T08:09:40.444Z,9.10
2022-09-30T08:12:07.153Z,9.20
2022-09-30T08:14:34.129Z,9.30
2022-09-30T08:17:01.314Z,9.30
2022-09-30T08:19:29.834Z,9.50
2022-09-30T08:21:57.058Z,9.70
2022-09-30T08:24:25.532Z,9.80
2022-09-30T08:26:52.810Z,9.90
2022-09-30T08:32:06.418Z,10.00
2022-09-30T08:34:35.468Z,10.10
2022-09-30T08:37:07.757Z,10.30
2022-09-30T08:39:36.038Z,10.40
2022-09-30T08:42:35.518Z,10.50
2022-09-30T08:45:15.637Z,10.60
2022-09-30T08:47:57.101Z,10.60
2022-09-30T08:50:37.044Z,10.70
2022-09-30T08:53:09.713Z,10.90
2022-09-30T08:55:43.069Z,11.20
2022-09-30T08:58:31.557Z,8.10
2022-09-30T09:01:13.212Z,11.50
2022-09-30T09:03:40.550Z,11.50
2022-09-30T09:06:28.222Z,11.60
2022-09-30T09:09:01.256Z,11.70
2022-09-30T09:12:00.544Z,11.70
2022-09-30T09:14:43.984Z,11.80
2022-09-30T09:17:26.148Z,11.90
2022-09-30T09:20:01.536Z,12.20
2022-09-30T09:22:30.333Z,11.70
2022-09-30T09:24:59.071Z,12.60
2022-09-30T09:30:15.847Z,12.90
2022-09-30T09:32:47.101Z,13.00
2022-09-30T09:35:17.642Z,13.20
2022-09-30T09:38:27.364Z,13.40
2022-09-30T09:40:57.507Z,13.60
2022-09-30T09:43:35.625Z,13.40
2022-09-30T09:46:28.426Z,13.60
2022-09-30T09:49:20.189Z,13.60
2022-09-30T09:52:08.902Z,13.40
2022-09-30T09:54:41.346Z,13.50
2022-09-30T09:57:10.484Z,13.80
2022-09-30T09:59:45.869Z,14.20
2022-09-30T10:02:32.632Z,14.30
2022-09-30T10:05:01.291Z,14.20
2022-09-30T10:07:29.830Z,14.30
2022-09-30T10:10:23.326Z,14.40
2022-09-30T10:12:51.055Z,14.50
2022-09-30T10:15:23.137Z,14.80
2022-09-30T10:17:53.758Z,15.30
2022-09-30T10:20:28.216Z,15.90
2022-09-30T10:23:09.293Z,16.60
2022-09-30T10:25:36.332Z,17.40
2022-09-30T10:28:22.133Z,18.30
2022-09-30T10:30:55.605Z,19.00
2022-09-30T10:33:28.619Z,19.90
2022-09-30T10:36:02.481Z,20.50
2022-09-30T10:38:32.172Z,20.90
2022-09-30T10:40:59.883Z,20.50
2022-09-30T10:43:44.748Z,20.20
2022-09-30T10:46:25.735Z,19.90
2022-09-30T10:48:55.004Z,19.60
2022-09-30T10:51:29.271Z,19.10
2022-09-30T10:53:57.205Z,18.70
2022-09-30T10:56:42.901Z,18.30
2022-09-30T10:59:28.855Z,18.10
2022-09-30T11:02:05.267Z,18.50
2022-09-30T11:04:40.085Z,19.40
2022-09-30T11:07:29.851Z,19.80
2022-09-30T11:10:07.127Z,21.00
2022-09-30T11:12:47.455Z,21.60
2022-09-30T11:15:35.458Z,22.00
2022-09-30T11:18:07.972Z,22.10
2022-09-30T11:20:41.739Z,22.80
2022-09-30T11:23:26.222Z,23.40
2022-09-30T11:25:58.751Z,23.50
2022-09-30T11:28:38.747Z,22.30
2022-09-30T11:31:45.370Z,22.60
2022-09-30T11:34:32.459Z,21.60
2022-09-30T11:37:26.778Z,21.00
2022-09-30T11:40:19.294Z,21.20
2022-09-30T11:42:58.913Z,21.50
2022-09-30T11:45:26.708Z,21.40
2022-09-30T11:48:11.718Z,22.00
2022-09-30T11:50:48.570Z,22.40
2022-09-30T11:53:25.563Z,22.80
2022-09-30T11:56:06.158Z,22.80
2022-09-30T11:58:41.774Z,22.70
2022-09-30T12:01:14.341Z,21.80
2022-09-30T12:03:46.284Z,22.20
2022-09-30T12:06:24.670Z,21.90
2022-09-30T12:08:59.964Z,21.70
2022-09-30T12:11:36.329Z,20.50
2022-09-30T12:14:13.301Z,20.50
2022-09-30T12:16:40.473Z,20.50
2022-09-30T12:19:30.918Z,21.50
2022-09-30T12:22:24.046Z,22.40
2022-09-30T12:24:50.786Z,22.20
2022-09-30T12:27:21.449Z,21.60
2022-09-30T12:30:19.677Z,20.80
2022-09-30T12:33:13.853Z,20.30
2022-09-30T12:36:03.513Z,20.20
2022-09-30T12:38:55.581Z,20.80
2022-09-30T12:41:48.273Z,21.30
2022-09-30T12:44:55.210Z,21.90
2022-09-30T12:47:23.224Z,21.40
2022-09-30T12:49:51.153Z,21.50
2022-09-30T12:52:21.437Z,21.20
2022-09-30T12:54:55.598Z,21.00
2022-09-30T12:57:28.212Z,21.10
2022-09-30T13:00:00.712Z,21.70
2022-09-30T13:02:36.104Z,21.60
2022-09-30T13:05:30.081Z,22.50
2022-09-30T13:08:05.062Z,23.70
2022-09-30T13:10:32.769Z,23.90
2022-09-30T13:13:23.951Z,23.30
2022-09-30T13:15:52.271Z,22.20
2022-09-30T13:18:19.976Z,21.50
2022-09-30T13:21:10.657Z,20.90
2022-09-30T13:23:56.252Z,21.00
2022-09-30T13:26:24.232Z,21.80
2022-09-30T13:28:52.974Z,23.30
2022-09-30T13:31:21.880Z,24.60
2022-09-30T13:34:11.197Z,25.50
2022-09-30T13:36:38.849Z,26.20
2022-09-30T13:39:17.907Z,27.20
2022-09-30T13:41:57.110Z,28.40
2022-09-30T13:44:48.956Z,29.60
2022-09-30T13:47:42.499Z,30.00
2022-09-30T13:50:25.952Z,28.60
2022-09-30T13:52:59.140Z,28.10
2022-09-30T13:55:29.933Z,28.10
2022-09-30T13:58:22.500Z,28.50
2022-09-30T14:00:59.439Z,28.30
2022-09-30T14:03:38.626Z,27.40
2022-09-30T14:06:36.875Z,25.90
2022-09-30T14:09:23.426Z,25.30
2022-09-30T14:12:13.408Z,25.70
2022-09-30T14:15:09.480Z,26.50
2022-09-30T14:17:59.271Z,27.20
2022-09-30T14:20:37.119Z,27.70
2022-09-30T14:23:05.113Z,27.40
2022-09-30T14:25:40.407Z,27.40
2022-09-30T14:28:11.451Z,27.70
2022-09-30T14:30:45.230Z,27.30
2022-09-30T14:33:21.968Z,27.00
2022-09-30T14:35:49.450Z,27.60
2022-09-30T14:38:22.951Z,28.70
2022-09-30T14:40:56.918Z,27.70
2022-09-30T14:43:35.919Z,29.50
2022-09-30T14:46:09.284Z,29.00
2022-09-30T14:48:40.376Z,31.20
2022-09-30T14:51:13.227Z,31.70
2022-09-30T14:53:43.339Z,31.80
2022-09-30T14:56:32.440Z,32.10
2022-09-30T14:59:00.935Z,31.40
2022-09-30T15:01:35.875Z,30.40
2022-09-30T15:04:11.232Z,30.40
2022-09-30T15:06:42.451Z,30.50
2022-09-30T15:09:22.260Z,30.30
2022-09-30T15:11:49.098Z,29.80
2022-09-30T15:14:19.899Z,29.40
2022-09-30T15:16:49.634Z,29.40
2022-09-30T15:19:23.832Z,29.50
2022-09-30T15:21:54.274Z,30.00
2022-09-30T15:24:24.245Z,30.30
2022-09-30T15:26:53.253Z,30.40
2022-09-30T15:29:19.997Z,30.30
2022-09-30T15:31:50.178Z,30.30
2022-09-30T15:34:21.799Z,30.00
2022-09-30T15:37:06.507Z,29.60
2022-09-30T15:39:57.794Z,27.80
2022-09-30T15:42:49.406Z,27.60
2022-09-30T15:45:18.662Z,26.10
2022-09-30T15:48:04.717Z,24.60
2022-09-30T15:50:43.278Z,23.00
2022-09-30T15:53:21.291Z,21.30
2022-09-30T15:55:52.827Z,19.90
2022-09-30T15:58:47.149Z,18.80
2022-09-30T16:01:16.596Z,17.80
2022-09-30T16:04:18.967Z,16.80
2022-09-30T16:06:45.874Z,15.90
2022-09-30T16:09:20.158Z,15.10
2022-09-30T16:12:08.756Z,14.80
2022-09-30T16:15:00.519Z,14.60
2022-09-30T16:17:30.696Z,14.20
2022-09-30T16:19:59.886Z,13.70
2022-09-30T16:22:41.353Z,13.60
2022-09-30T16:25:19.005Z,13.40
2022-09-30T16:27:46.027Z,13.00
2022-09-30T16:30:16.263Z,12.60
2022-09-30T16:32:47.773Z,12.50
2022-09-30T16:35:18.520Z,12.20
2022-09-30T16:37:45.485Z,12.00
2022-09-30T16:40:29.908Z,11.80
2022-09-30T16:42:58.883Z,11.60
2022-09-30T16:45:28.413Z,11.60
2022-09-30T16:47:57.352Z,11.40
2022-09-30T16:50:44.452Z,11.20
2022-09-30T16:53:11.400Z,11.20
2022-09-30T16:55:38.291Z,11.00
2022-09-30T16:58:05.548Z,10.70
2022-09-30T17:00:32.829Z,10.80
2022-09-30T17:02:59.880Z,10.50
2022-09-30T17:05:27.797Z,10.80
2022-09-30T17:07:57.058Z,10.10
2022-09-30T17:10:31.431Z,9.80
2022-09-30T17:13:00.682Z,10.00
2022-09-30T17:15:28.952Z,9.70
2022-09-30T17:17:56.190Z,9.80
2022-09-30T17:20:23.682Z,9.20
2022-09-30T17:22:50.483Z,9.60
2022-09-30T17:25:18.245Z,8.80
2022-09-30T17:27:49.112Z,9.30
2022-09-30T17:30:16.210Z,9.10
2022-09-30T17:32:43.065Z,8.30
2022-09-30T17:35:10.420Z,9.30
2022-09-30T17:37:38.593Z,9.20
2022-09-30T17:40:28.094Z,9.30
2022-09-30T17:43:14.871Z,9.10
2022-09-30T17:45:44.102Z,8.90
2022-09-30T17:48:12.351Z,9.10
2022-09-30T17:50:42.407Z,8.70
2022-09-30T17:53:09.925Z,8.30
2022-09-30T17:55:36.791Z,8.70
2022-09-30T17:58:03.646Z,8.50
2022-09-30T18:00:31.126Z,6.80
2022-09-30T18:02:58.258Z,8.50
2022-09-30T18:05:25.722Z,8.50
2022-09-30T18:07:52.673Z,8.60
2022-09-30T18:10:19.742Z,8.60
2022-09-30T18:12:51.841Z,8.30
2022-09-30T18:15:20.431Z,8.20
2022-09-30T18:17:47.396Z,8.20
2022-09-30T18:20:15.083Z,8.10
2022-09-30T18:22:42.154Z,8.20
2022-09-30T18:25:24.844Z,8.10
2022-09-30T18:27:56.890Z,7.90
2022-09-30T18:30:24.308Z,7.90
2022-09-30T18:32:53.041Z,7.90
2022-09-30T18:35:22.213Z,7.80
2022-09-30T18:37:50.205Z,7.90
2022-09-30T18:40:19.429Z,7.80
2022-09-30T18:42:46.871Z,7.70
2022-09-30T18:45:13.884Z,7.60
2022-09-30T18:47:42.450Z,7.70
2022-09-30T18:50:11.052Z,7.70
2022-09-30T18:52:38.640Z,7.70
2022-09-30T18:55:07.229Z,7.70
2022-09-30T18:57:34.893Z,7.60
2022-09-30T19:00:02.149Z,7.60
2022-09-30T19:02:29.665Z,7.50
2022-09-30T19:04:59.934Z,7.50
2022-09-30T19:07:27.112Z,7.50
2022-09-30T19:09:53.992Z,7.50
2022-09-30T19:12:21.612Z,7.50
2022-09-30T19:14:48.504Z,7.40
2022-09-30T19:17:15.893Z,7.30
2022-09-30T19:19:45.865Z,6.90
2022-09-30T19:22:13.684Z,7.10
2022-09-30T19:24:42.723Z,7.20
2022-09-30T19:27:11.092Z,7.20
2022-09-30T19:29:39.260Z,7.30
2022-09-30T19:32:09.576Z,7.20
2022-09-30T19:34:37.252Z,7.10
2022-09-30T19:37:04.680Z,7.10
2022-09-30T19:39:42.553Z,7.60
2022-09-30T19:42:18.222Z,7.00
2022-09-30T19:44:45.050Z,6.90
2022-09-30T19:47:12.403Z,7.00
2022-09-30T19:49:39.514Z,7.00
2022-09-30T19:52:15.507Z,7.00
2022-09-30T19:54:45.911Z,7.00
2022-09-30T19:57:13.316Z,7.00
2022-09-30T19:59:40.166Z,7.00
2022-09-30T20:02:07.226Z,7.10
2022-09-30T20:04:35.240Z,6.90
2022-09-30T20:07:02.316Z,6.90
2022-09-30T20:09:29.299Z,10.50
2022-09-30T20:11:56.291Z,6.80
2022-09-30T20:14:42.992Z,6.50
2022-09-30T20:17:11.281Z,6.70
2022-09-30T20:19:38.204Z,6.60
2022-09-30T20:22:05.456Z,6.50
2022-09-30T20:24:32.323Z,7.50
2022-09-30T20:26:59.211Z,6.50
2022-09-30T20:29:27.061Z,6.50
2022-09-30T20:31:54.007Z,6.40
2022-09-30T20:34:21.194Z,6.40
2022-09-30T20:36:48.490Z,6.30
2022-09-30T20:39:15.329Z,6.30
2022-09-30T20:41:42.111Z,7.00
2022-09-30T20:44:12.092Z,6.20
2022-09-30T20:46:40.104Z,6.10
2022-09-30T20:49:07.225Z,6.10
2022-09-30T20:51:34.796Z,6.30
2022-09-30T20:54:02.295Z,6.50
2022-09-30T20:56:39.351Z,6.30
2022-09-30T20:59:17.127Z,6.30
2022-09-30T21:01:43.969Z,6.40
2022-09-30T21:04:10.982Z,6.10
2022-09-30T21:06:37.743Z,6.30
2022-09-30T21:09:05.658Z,4.80
2022-09-30T21:11:33.404Z,5.90
2022-09-30T21:14:00.758Z,5.80
2022-09-30T21:16:29.522Z,5.80
2022-09-30T21:18:56.543Z,6.10
2022-09-30T21:21:24.761Z,5.70
2022-09-30T21:26:22.276Z,5.40
2022-09-30T21:28:50.696Z,5.40
2022-09-30T21:31:21.939Z,5.20
2022-09-30T21:33:55.270Z,5.10
2022-09-30T21:36:22.838Z,5.10
2022-09-30T21:38:50.215Z,5.20
2022-09-30T21:41:17.847Z,5.00
2022-09-30T21:43:44.564Z,4.90
2022-09-30T21:46:13.919Z,4.90
2022-09-30T21:48:41.063Z,4.80
2022-09-30T21:51:08.512Z,4.80
2022-09-30T21:53:35.403Z,4.80
2022-09-30T21:56:03.504Z,4.70
2022-09-30T21:58:32.167Z,4.70
2022-09-30T22:01:02.662Z,4.70
2022-09-30T22:03:31.857Z,4.70
2022-09-30T22:06:00.420Z,4.70
2022-09-30T22:08:32.886Z,4.60
2022-09-30T22:10:59.728Z,4.60
2022-09-30T22:13:26.479Z,4.60
2022-09-30T22:16:03.446Z,4.50
2022-09-30T22:18:32.139Z,4.50
2022-09-30T22:21:05.326Z,4.50
2022-09-30T22:23:32.411Z,4.50
2022-09-30T22:26:07.632Z,4.50
2022-09-30T22:28:34.937Z,4.40
2022-09-30T22:31:11.499Z,4.40
2022-09-30T22:33:58.158Z,4.30
2022-09-30T22:36:44.752Z,4.30
2022-09-30T22:39:11.964Z,4.30
2022-09-30T22:41:38.795Z,4.20
2022-09-30T22:44:06.003Z,4.20
2022-09-30T22:46:34.151Z,4.20
2022-09-30T22:49:00.911Z,4.10
2022-09-30T22:51:28.018Z,4.10
2022-09-30T22:53:55.874Z,4.10
2022-09-30T22:56:23.195Z,4.10
2022-09-30T22:58:49.944Z,4.10
2022-09-30T23:01:16.751Z,4.00
2022-09-30T23:03:43.611Z,4.00
2022-09-30T23:06:10.513Z,3.90
2022-09-30T23:08:41.944Z,4.00
2022-09-30T23:11:11.070Z,4.00
2022-09-30T23:13:39.547Z,4.00
2022-09-30T23:16:07.504Z,3.90
2022-09-30T23:18:34.718Z,3.90
2022-09-30T23:21:05.123Z,4.00
2022-09-30T23:23:33.539Z,4.00
2022-09-30T23:26:02.534Z,4.00
2022-09-30T23:28:29.795Z,3.90
2022-09-30T23:31:00.385Z,3.40
2022-09-30T23:33:27.607Z,3.90
2022-09-30T23:35:55.423Z,3.80
2022-09-30T23:38:26.238Z,3.80
2022-09-30T23:40:58.838Z,3.80
2022-09-30T23:43:27.306Z,3.80
2022-09-30T23:45:54.469Z,3.80
2022-09-30T23:48:21.212Z,3.80
2022-09-30T23:50:49.604Z,3.70
2022-09-30T23:53:16.464Z,3.70
2022-09-30T23:55:43.236Z,3.70
2022-09-30T23:58:10.024Z,3.70
